Time;durP1;ratioP1;P1;durP2;ratioP2;P2;SDS_P1;SDS_P2;PMS_P1;PMS_P2;Temp;Humidity;BMP_temperature;BMP_pressure;BME280_temperature;BME280_humidity;BME280_pressure;Samples;Min_cycle;Max_cycle;Signal;HPM_P1;HPM_P2
2023/10/29 00:00:50;;;;;;;6.05;1.98;;;14.60;99.90;;;;;;5059194;28;39599;-78
2023/10/29 00:03:17;;;;;;;3.97;1.02;;;14.80;99.90;;;;;;5059840;28;37297;-78
2023/10/29 00:05:43;;;;;;;4.00;1.25;;;14.90;99.90;;;;;;5065387;28;37324;-79
2023/10/29 00:08:09;;;;;;;4.97;1.30;;;15.00;99.90;;;;;;5065491;28;38909;-79
2023/10/29 00:10:35;;;;;;;3.72;1.27;;;15.10;99.90;;;;;;5062444;28;37643;-78
2023/10/29 00:13:02;;;;;;;7.38;1.30;;;15.10;99.90;;;;;;5060171;28;37348;-77
2023/10/29 00:15:28;;;;;;;3.00;1.02;;;15.10;99.90;;;;;;5058659;28;37466;-77
2023/10/29 00:17:55;;;;;;;2.83;1.02;;;15.10;99.90;;;;;;5060328;28;38915;-77
2023/10/29 00:20:21;;;;;;;4.30;1.00;;;15.10;99.90;;;;;;5055009;28;38189;-77
2023/10/29 00:22:47;;;;;;;2.92;1.27;;;15.20;99.90;;;;;;5060109;28;37251;-77
2023/10/29 00:25:13;;;;;;;4.55;1.08;;;15.20;99.90;;;;;;5062280;28;38503;-79
2023/10/29 00:27:39;;;;;;;5.68;1.30;;;15.20;99.90;;;;;;5055918;28;37835;-78
2023/10/29 00:30:06;;;;;;;3.95;1.00;;;15.20;99.90;;;;;;5057477;28;37009;-74
2023/10/29 00:32:32;;;;;;;8.30;1.30;;;15.20;99.90;;;;;;5063480;28;36418;-77
2023/10/29 00:34:58;;;;;;;3.47;1.17;;;15.20;99.90;;;;;;5069913;28;39423;-76
2023/10/29 00:37:24;;;;;;;6.22;1.00;;;15.30;99.90;;;;;;5068164;28;38648;-77
2023/10/29 00:39:50;;;;;;;3.75;1.05;;;15.30;99.90;;;;;;5067791;28;37492;-77
2023/10/29 00:42:16;;;;;;;3.03;0.95;;;15.40;99.90;;;;;;5063666;28;37573;-77
2023/10/29 00:44:43;;;;;;;2.75;0.98;;;15.40;99.90;;;;;;5058083;28;37622;-77
2023/10/29 00:47:09;;;;;;;5.30;1.30;;;15.40;99.90;;;;;;5065731;28;40309;-77
2023/10/29 00:49:36;;;;;;;2.92;1.20;;;15.40;99.90;;;;;;5059831;28;37413;-78
2023/10/29 00:52:02;;;;;;;2.47;1.60;;;15.40;99.90;;;;;;5067231;28;37970;-76
2023/10/29 00:54:29;;;;;;;2.70;1.10;;;15.40;99.90;;;;;;5062686;28;39623;-77
2023/10/29 00:56:56;;;;;;;4.82;0.95;;;15.40;99.90;;;;;;5063109;28;39487;-77
2023/10/29 00:59:25;;;;;;;7.07;1.70;;;15.30;99.90;;;;;;5059626;28;37752;-77
2023/10/29 01:01:51;;;;;;;1.55;0.77;;;15.30;99.90;;;;;;5062173;28;36802;-77
2023/10/29 01:04:18;;;;;;;7.00;1.77;;;15.30;99.90;;;;;;5064414;28;37817;-77
2023/10/29 01:06:46;;;;;;;5.13;0.85;;;15.40;99.90;;;;;;5061249;28;38816;-77
2023/10/29 01:09:13;;;;;;;5.05;1.20;;;15.40;99.90;;;;;;5058707;28;37392;-77
2023/10/29 01:11:39;;;;;;;4.55;1.15;;;15.40;99.90;;;;;;5058950;28;37034;-77
2023/10/29 01:14:05;;;;;;;3.10;0.93;;;15.40;99.90;;;;;;5058171;28;38609;-78
2023/10/29 01:16:31;;;;;;;4.00;1.23;;;15.40;99.90;;;;;;5053082;28;37757;-78
2023/10/29 01:19:01;;;;;;;3.00;0.77;;;15.40;99.90;;;;;;5067116;28;38007;-77
2023/10/29 01:21:29;;;;;;;2.72;0.68;;;15.40;99.90;;;;;;5061090;28;47672;-77
2023/10/29 01:23:55;;;;;;;1.88;0.70;;;15.40;99.90;;;;;;5067986;28;39240;-77
2023/10/29 01:26:21;;;;;;;5.43;0.90;;;15.40;99.90;;;;;;5059430;28;37795;-77
2023/10/29 01:28:47;;;;;;;5.82;0.90;;;15.40;99.90;;;;;;5068224;28;38257;-77
2023/10/29 01:31:13;;;;;;;2.38;0.70;;;15.50;99.90;;;;;;5062318;28;36857;-77
2023/10/29 01:33:40;;;;;;;3.17;0.70;;;15.40;99.90;;;;;;5051688;28;37781;-77
2023/10/29 01:36:06;;;;;;;4.43;1.02;;;15.40;99.90;;;;;;5057409;28;41401;-77
2023/10/29 01:38:33;;;;;;;1.75;0.75;;;15.40;99.90;;;;;;5058358;28;37690;-77
2023/10/29 01:41:00;;;;;;;2.47;0.57;;;15.40;99.90;;;;;;5061373;28;36134;-76
2023/10/29 01:43:26;;;;;;;2.47;0.60;;;15.40;99.90;;;;;;5067686;28;38535;-76
2023/10/29 01:45:52;;;;;;;3.60;0.70;;;15.30;99.90;;;;;;5063535;28;38995;-76
2023/10/29 01:48:21;;;;;;;3.60;1.08;;;15.20;99.90;;;;;;5056259;28;37562;-79
2023/10/29 01:50:50;;;;;;;6.65;1.30;;;15.10;99.90;;;;;;5066529;28;37048;-77
2023/10/29 01:53:16;;;;;;;3.65;0.70;;;14.90;99.90;;;;;;5064149;28;38901;-77
2023/10/29 01:55:42;;;;;;;3.38;0.80;;;14.40;99.90;;;;;;5069378;28;39162;-76
2023/10/29 01:58:09;;;;;;;4.00;0.70;;;14.10;99.90;;;;;;5061323;28;38875;-78
2023/10/29 02:03:11;;;;;;;6.18;1.33;;;13.60;99.90;;;;;;5342691;22;20053;-81
2023/10/29 02:05:37;;;;;;;3.10;0.63;;;13.50;99.90;;;;;;5059889;28;38101;-79
2023/10/29 02:08:03;;;;;;;5.40;0.82;;;13.40;99.90;;;;;;5055053;28;37731;-79
2023/10/29 02:10:30;;;;;;;3.75;1.00;;;13.10;99.90;;;;;;5063019;28;36052;-79
2023/10/29 02:12:56;;;;;;;5.18;0.70;;;12.90;99.90;;;;;;5066230;28;37539;-81
2023/10/29 02:15:22;;;;;;;2.33;0.50;;;12.90;99.90;;;;;;5061320;28;37452;-77
2023/10/29 02:17:48;;;;;;;7.28;0.70;;;12.80;99.90;;;;;;5062921;28;38570;-78
2023/10/29 02:20:14;;;;;;;5.53;0.93;;;12.80;99.90;;;;;;5066827;28;37548;-76
2023/10/29 02:22:40;;;;;;;4.97;0.80;;;12.70;99.90;;;;;;5065135;28;38128;-77
2023/10/29 02:25:07;;;;;;;3.78;0.40;;;12.70;99.90;;;;;;5062447;28;37980;-77
2023/10/29 02:27:33;;;;;;;7.30;0.60;;;12.60;99.90;;;;;;5059566;28;37814;-79
2023/10/29 02:29:59;;;;;;;4.70;0.60;;;12.60;99.90;;;;;;5067170;28;37074;-77
2023/10/29 02:32:25;;;;;;;2.40;0.45;;;12.60;99.90;;;;;;5059762;28;37824;-77
2023/10/29 02:34:51;;;;;;;4.93;0.60;;;12.70;99.90;;;;;;5064716;28;38281;-78
2023/10/29 02:37:17;;;;;;;3.70;0.90;;;12.70;99.90;;;;;;5065992;28;38308;-78
2023/10/29 02:39:43;;;;;;;2.80;0.60;;;12.90;99.90;;;;;;5068314;28;36118;-78
2023/10/29 02:42:14;;;;;;;0.70;0.50;;;12.80;99.90;;;;;;5059003;28;39583;-78
2023/10/29 02:44:40;;;;;;;2.05;0.63;;;13.00;99.90;;;;;;5060304;28;37750;-78
2023/10/29 02:47:06;;;;;;;3.92;1.05;;;13.00;99.90;;;;;;5067557;28;38740;-77
2023/10/29 02:49:32;;;;;;;2.42;0.70;;;13.10;99.90;;;;;;5062446;28;36218;-78
2023/10/29 02:51:58;;;;;;;2.78;0.70;;;13.20;99.90;;;;;;5065243;28;37670;-78
2023/10/29 02:54:24;;;;;;;2.13;0.60;;;13.40;99.90;;;;;;5062167;28;38837;-78
2023/10/29 02:56:50;;;;;;;3.97;0.77;;;13.50;99.90;;;;;;5066043;28;38944;-78
2023/10/29 02:59:16;;;;;;;2.55;0.73;;;13.60;99.90;;;;;;5069786;28;37267;-78
2023/10/29 03:01:43;;;;;;;2.22;0.60;;;13.70;99.90;;;;;;5067767;28;38862;-78
2023/10/29 03:04:09;;;;;;;0.85;0.60;;;13.90;99.90;;;;;;5060054;28;37591;-78
2023/10/29 03:06:39;;;;;;;1.38;0.40;;;13.90;99.90;;;;;;5063870;28;38232;-79
2023/10/29 03:09:05;;;;;;;3.88;0.70;;;13.90;99.90;;;;;;5062120;28;35977;-77
2023/10/29 03:11:31;;;;;;;4.53;0.70;;;13.90;99.90;;;;;;5062593;28;37916;-77
2023/10/29 03:13:59;;;;;;;2.92;0.60;;;13.90;99.90;;;;;;5058226;28;36533;-77
2023/10/29 03:16:25;;;;;;;3.47;0.50;;;13.80;99.90;;;;;;5065417;28;38745;-78
2023/10/29 03:18:51;;;;;;;2.47;0.52;;;14.00;99.90;;;;;;5062410;28;36734;-78
2023/10/29 03:21:18;;;;;;;2.72;0.60;;;14.10;99.90;;;;;;5063440;28;38160;-78
2023/10/29 03:23:45;;;;;;;5.50;0.98;;;14.10;99.90;;;;;;5055221;28;38896;-79
2023/10/29 03:26:11;;;;;;;1.98;0.65;;;14.10;99.90;;;;;;5060186;28;37393;-78
2023/10/29 03:28:39;;;;;;;3.17;0.50;;;14.10;99.90;;;;;;5064010;28;36206;-78
2023/10/29 03:31:13;;;;;;;3.58;0.70;;;14.20;99.90;;;;;;5062111;28;38922;-77
2023/10/29 03:33:39;;;;;;;3.80;0.82;;;14.20;99.90;;;;;;5054686;28;37652;-78
2023/10/29 03:36:06;;;;;;;4.25;0.63;;;14.30;99.90;;;;;;5061078;28;39291;-78
2023/10/29 03:38:33;;;;;;;2.47;0.70;;;14.20;99.90;;;;;;5059734;28;37538;-77
2023/10/29 03:40:59;;;;;;;3.97;0.70;;;14.20;99.90;;;;;;5059628;28;39496;-77
2023/10/29 03:43:25;;;;;;;6.38;0.90;;;14.30;99.90;;;;;;5065262;28;38860;-77
2023/10/29 03:45:51;;;;;;;5.32;0.63;;;14.30;99.90;;;;;;5073064;28;37126;-77
2023/10/29 03:48:17;;;;;;;5.45;0.70;;;14.30;99.90;;;;;;5054120;28;37434;-77
2023/10/29 03:50:43;;;;;;;5.38;0.63;;;14.30;99.90;;;;;;5063761;28;37547;-75
2023/10/29 03:53:10;;;;;;;6.63;0.98;;;14.40;99.90;;;;;;5053973;28;39887;-76
2023/10/29 03:55:36;;;;;;;4.72;0.80;;;14.40;99.90;;;;;;5060136;28;37864;-75
2023/10/29 03:58:03;;;;;;;4.80;0.88;;;14.30;99.90;;;;;;5062399;28;37076;-76
2023/10/29 04:00:29;;;;;;;7.22;0.80;;;14.30;99.90;;;;;;5062514;28;38734;-76
2023/10/29 04:02:55;;;;;;;4.45;0.80;;;14.30;99.90;;;;;;5060561;28;37966;-76
2023/10/29 04:05:22;;;;;;;7.50;1.33;;;14.30;99.90;;;;;;5065451;28;38573;-79
2023/10/29 04:07:48;;;;;;;5.80;1.00;;;14.30;99.90;;;;;;5066739;28;37116;-76
2023/10/29 04:10:15;;;;;;;4.38;0.80;;;14.30;99.90;;;;;;5064757;28;38582;-75
2023/10/29 04:12:41;;;;;;;5.75;0.60;;;14.30;99.90;;;;;;5063598;28;37393;-76
2023/10/29 04:15:08;;;;;;;4.45;0.82;;;14.40;99.90;;;;;;5066804;28;38891;-76
2023/10/29 04:17:34;;;;;;;5.72;0.90;;;14.40;99.90;;;;;;5070261;28;37803;-75
2023/10/29 04:20:01;;;;;;;5.30;0.65;;;14.40;99.90;;;;;;5067135;28;37692;-75
2023/10/29 04:22:27;;;;;;;3.13;0.70;;;14.40;99.90;;;;;;5069227;28;38765;-75
2023/10/29 04:24:53;;;;;;;4.18;0.75;;;14.30;99.90;;;;;;5066657;28;39144;-76
2023/10/29 04:27:19;;;;;;;5.55;1.00;;;14.30;99.90;;;;;;5068442;28;36033;-75
2023/10/29 04:29:45;;;;;;;4.43;1.00;;;14.30;99.90;;;;;;5066002;28;39078;-75
2023/10/29 04:32:12;;;;;;;8.20;0.95;;;14.10;99.90;;;;;;5070544;28;38626;-76
2023/10/29 04:34:38;;;;;;;5.85;0.90;;;13.90;99.90;;;;;;5066030;28;38199;-76
2023/10/29 04:37:04;;;;;;;6.82;1.10;;;13.70;99.90;;;;;;5059530;28;37049;-75
2023/10/29 04:39:30;;;;;;;10.05;1.08;;;13.70;99.90;;;;;;5067138;28;37550;-75
2023/10/29 04:41:56;;;;;;;8.15;1.33;;;13.70;99.90;;;;;;5068586;28;38247;-76
2023/10/29 04:44:22;;;;;;;6.65;0.93;;;13.80;99.90;;;;;;5064837;28;38490;-75
2023/10/29 04:46:48;;;;;;;6.57;1.35;;;13.80;99.90;;;;;;5065994;28;37450;-75
2023/10/29 04:49:14;;;;;;;5.57;1.23;;;13.80;99.90;;;;;;5061048;28;38330;-76
2023/10/29 04:51:41;;;;;;;10.18;1.20;;;13.80;99.90;;;;;;5067589;28;38699;-75
2023/10/29 04:54:07;;;;;;;4.57;0.80;;;13.80;99.90;;;;;;5064958;28;39483;-75
2023/10/29 04:56:33;;;;;;;6.68;1.10;;;13.70;99.90;;;;;;5066987;28;36871;-75
2023/10/29 04:58:59;;;;;;;7.75;1.08;;;13.70;99.90;;;;;;5055840;28;37616;-76
2023/10/29 05:01:25;;;;;;;8.15;1.20;;;13.80;99.90;;;;;;5066016;28;37652;-75
2023/10/29 05:03:51;;;;;;;8.45;1.55;;;13.80;99.90;;;;;;5064087;28;39118;-75
2023/10/29 05:06:22;;;;;;;8.88;1.15;;;13.80;99.90;;;;;;5065700;28;38166;-75
2023/10/29 05:08:49;;;;;;;6.93;1.00;;;13.80;99.90;;;;;;5063266;28;38891;-76
2023/10/29 05:11:15;;;;;;;5.57;1.00;;;13.80;99.90;;;;;;5062320;28;38467;-75
2023/10/29 05:13:42;;;;;;;8.65;0.93;;;13.80;99.90;;;;;;5065036;28;39949;-76
2023/10/29 05:16:08;;;;;;;3.90;0.75;;;13.70;99.90;;;;;;5067652;28;37347;-75
2023/10/29 05:18:34;;;;;;;6.78;1.00;;;13.60;99.90;;;;;;5060828;28;38095;-75
2023/10/29 05:21:00;;;;;;;8.63;1.05;;;13.70;99.90;;;;;;5066519;28;38666;-76
2023/10/29 05:23:27;;;;;;;7.53;1.00;;;13.70;99.90;;;;;;5065389;28;46587;-74
2023/10/29 05:25:54;;;;;;;6.75;1.08;;;13.70;99.90;;;;;;5067696;28;36985;-75
2023/10/29 05:28:21;;;;;;;7.78;0.95;;;13.70;99.90;;;;;;5067434;28;38172;-75
2023/10/29 05:30:47;;;;;;;8.95;0.98;;;13.60;99.90;;;;;;5075600;28;37728;-74
2023/10/29 05:33:13;;;;;;;4.75;0.70;;;13.50;99.90;;;;;;5063587;28;37302;-75
2023/10/29 05:35:39;;;;;;;8.98;1.10;;;13.50;99.90;;;;;;5066163;28;36555;-75
2023/10/29 05:38:05;;;;;;;7.85;1.13;;;13.40;99.90;;;;;;5068412;28;40031;-75
2023/10/29 05:40:31;;;;;;;6.15;1.27;;;13.50;99.90;;;;;;5066014;28;39291;-75
2023/10/29 05:42:58;;;;;;;9.38;1.25;;;13.40;99.90;;;;;;5065673;28;38779;-75
2023/10/29 05:45:24;;;;;;;8.82;1.23;;;13.40;99.90;;;;;;5066240;28;36034;-75
2023/10/29 05:47:50;;;;;;;4.60;1.08;;;13.40;99.90;;;;;;5058952;28;37854;-75
2023/10/29 05:50:16;;;;;;;9.82;1.63;;;13.40;99.90;;;;;;5061094;28;37765;-76
2023/10/29 05:52:43;;;;;;;7.13;1.20;;;13.40;99.90;;;;;;5065051;28;38645;-76
2023/10/29 05:55:09;;;;;;;7.10;1.17;;;13.40;99.90;;;;;;5055797;28;35897;-75
2023/10/29 05:57:35;;;;;;;5.35;1.50;;;13.50;99.90;;;;;;5065289;28;38844;-75
2023/10/29 06:00:01;;;;;;;7.57;1.08;;;13.40;99.90;;;;;;5061314;28;38956;-75
2023/10/29 06:02:27;;;;;;;5.28;1.20;;;13.40;99.90;;;;;;5059713;28;38031;-75
2023/10/29 06:04:54;;;;;;;6.53;1.10;;;13.30;99.90;;;;;;5057311;28;36095;-76
2023/10/29 06:07:20;;;;;;;12.02;1.60;;;13.20;99.90;;;;;;5067398;28;38509;-77
2023/10/29 06:09:47;;;;;;;7.40;1.27;;;13.20;99.90;;;;;;5064872;28;39846;-76
2023/10/29 06:12:13;;;;;;;8.95;1.50;;;13.20;99.90;;;;;;5059233;28;39929;-75
2023/10/29 06:14:40;;;;;;;5.32;1.38;;;13.20;99.90;;;;;;5061425;28;36082;-74
2023/10/29 06:17:06;;;;;;;6.03;1.15;;;13.20;99.90;;;;;;5063303;28;39859;-75
2023/10/29 06:19:33;;;;;;;8.82;1.40;;;13.10;99.90;;;;;;5061450;28;37633;-76
2023/10/29 06:21:59;;;;;;;7.10;1.08;;;13.10;99.90;;;;;;5061918;28;38562;-75
2023/10/29 06:24:25;;;;;;;7.03;1.40;;;13.10;99.90;;;;;;5061556;28;36064;-76
2023/10/29 06:26:51;;;;;;;5.40;1.10;;;13.00;99.90;;;;;;5066992;28;38814;-76
2023/10/29 06:29:17;;;;;;;7.72;1.58;;;13.00;99.90;;;;;;5062713;28;39087;-76
2023/10/29 06:31:43;;;;;;;6.63;1.10;;;13.00;99.90;;;;;;5060907;28;37391;-76
2023/10/29 06:34:10;;;;;;;5.55;0.93;;;12.90;99.90;;;;;;5059908;28;35658;-76
2023/10/29 06:36:36;;;;;;;9.85;1.05;;;12.80;99.90;;;;;;5068128;28;37843;-76
2023/10/29 06:39:02;;;;;;;6.15;1.00;;;12.80;99.90;;;;;;5062347;28;37400;-76
2023/10/29 06:41:28;;;;;;;5.40;0.90;;;12.80;99.90;;;;;;5063517;28;37673;-77
2023/10/29 06:43:54;;;;;;;7.50;1.35;;;12.80;99.90;;;;;;5068080;28;37306;-76
2023/10/29 06:46:20;;;;;;;5.65;0.70;;;12.90;99.90;;;;;;5064573;28;39366;-76
2023/10/29 06:48:46;;;;;;;3.90;1.05;;;12.90;99.90;;;;;;5062388;28;37947;-77
2023/10/29 06:51:14;;;;;;;4.80;0.90;;;13.00;99.90;;;;;;5061151;28;38832;-76
2023/10/29 06:53:40;;;;;;;6.80;1.27;;;13.10;99.90;;;;;;5062249;28;38437;-76
2023/10/29 06:56:06;;;;;;;4.88;0.90;;;13.00;99.90;;;;;;5061883;28;39395;-76
2023/10/29 06:58:33;;;;;;;5.90;0.80;;;13.10;99.90;;;;;;5064762;28;39682;-76
2023/10/29 07:01:06;;;;;;;5.63;1.27;;;13.00;99.90;;;;;;5059962;28;38680;-77
2023/10/29 07:03:32;;;;;;;7.20;1.10;;;13.00;99.90;;;;;;5057416;28;49317;-76
2023/10/29 07:06:06;;;;;;;9.82;1.15;;;12.80;99.90;;;;;;5062348;28;38054;-76
2023/10/29 07:08:33;;;;;;;9.13;1.63;;;12.80;99.90;;;;;;5057006;28;47013;-76
2023/10/29 07:11:01;;;;;;;6.95;1.05;;;12.80;99.90;;;;;;5065768;28;37026;-75
2023/10/29 07:13:27;;;;;;;8.35;1.13;;;12.80;99.90;;;;;;5059108;28;47054;-76
2023/10/29 07:15:54;;;;;;;9.73;1.73;;;12.80;99.90;;;;;;5060926;28;38929;-76
2023/10/29 07:18:22;;;;;;;10.88;1.45;;;12.90;99.90;;;;;;5066366;28;40322;-75
2023/10/29 07:20:52;;;;;;;9.52;1.17;;;13.00;99.90;;;;;;5061431;28;38401;-77
2023/10/29 07:23:20;;;;;;;7.65;1.70;;;13.10;99.90;;;;;;5063796;28;38235;-76
2023/10/29 07:25:47;;;;;;;6.18;1.38;;;13.10;99.90;;;;;;5064626;28;39856;-76
2023/10/29 07:28:17;;;;;;;8.25;1.58;;;13.10;99.90;;;;;;5064203;28;38713;-76
2023/10/29 07:30:43;;;;;;;5.75;1.38;;;13.10;99.90;;;;;;5056483;28;37665;-76
2023/10/29 07:33:10;;;;;;;10.32;1.67;;;13.20;99.90;;;;;;5065194;28;37546;-76
2023/10/29 07:35:37;;;;;;;4.28;1.27;;;13.20;99.90;;;;;;5062318;28;37818;-76
2023/10/29 07:38:05;;;;;;;5.80;1.08;;;13.10;99.90;;;;;;5065210;28;39806;-76
2023/10/29 07:40:31;;;;;;;8.05;1.27;;;13.10;99.90;;;;;;5063556;28;38175;-76
2023/10/29 07:42:57;;;;;;;7.38;1.55;;;13.10;99.90;;;;;;5062874;28;37673;-76
2023/10/29 07:45:24;;;;;;;7.97;2.28;;;13.00;99.90;;;;;;5056474;28;37713;-76
2023/10/29 07:47:50;;;;;;;8.55;1.08;;;13.00;99.90;;;;;;5063464;28;37890;-76
2023/10/29 07:50:16;;;;;;;7.43;1.17;;;13.00;99.90;;;;;;5059105;28;38521;-76
2023/10/29 07:52:42;;;;;;;7.00;1.10;;;13.00;99.90;;;;;;5052860;28;36157;-76
2023/10/29 07:55:09;;;;;;;6.40;1.35;;;13.00;99.90;;;;;;5055848;28;37967;-75
2023/10/29 07:57:41;;;;;;;5.50;1.00;;;13.00;99.90;;;;;;5052479;28;37698;-75
2023/10/29 08:00:13;;;;;;;6.05;1.15;;;13.10;99.90;;;;;;5055328;28;38765;-76
2023/10/29 08:02:40;;;;;;;6.60;1.27;;;13.10;99.90;;;;;;5055820;28;36352;-77
2023/10/29 08:05:07;;;;;;;7.63;1.60;;;13.30;99.90;;;;;;5058624;28;37649;-76
2023/10/29 08:07:35;;;;;;;10.00;1.55;;;13.30;99.90;;;;;;5062120;28;20682;-75
2023/10/29 08:10:01;;;;;;;7.35;1.55;;;13.30;99.90;;;;;;5051118;28;37386;-76
2023/10/29 08:12:28;;;;;;;7.57;1.63;;;13.40;99.90;;;;;;5056088;28;35766;-75
2023/10/29 08:14:54;;;;;;;8.90;1.48;;;13.30;99.90;;;;;;5056771;28;37924;-75
2023/10/29 08:17:21;;;;;;;8.20;1.88;;;13.20;99.90;;;;;;5052799;28;39592;-76
2023/10/29 08:19:47;;;;;;;6.22;1.10;;;13.20;99.90;;;;;;5054261;28;39414;-76
2023/10/29 08:22:14;;;;;;;10.23;1.60;;;13.10;99.90;;;;;;5060694;28;37121;-76
2023/10/29 08:24:40;;;;;;;6.10;1.17;;;13.20;99.90;;;;;;5055316;28;38902;-75
2023/10/29 08:27:07;;;;;;;6.13;1.30;;;13.20;99.90;;;;;;5055501;28;36472;-75
2023/10/29 08:29:38;;;;;;;9.10;1.33;;;13.20;99.90;;;;;;5059823;28;37451;-75
2023/10/29 08:32:05;;;;;;;10.75;1.27;;;13.30;99.90;;;;;;5051717;28;36344;-76
2023/10/29 08:34:31;;;;;;;8.20;1.40;;;13.40;99.90;;;;;;5052897;28;39403;-75
2023/10/29 08:36:57;;;;;;;6.13;0.98;;;13.50;99.90;;;;;;5053696;28;37729;-75
2023/10/29 08:39:23;;;;;;;5.15;1.23;;;13.40;99.90;;;;;;5052463;28;38106;-76
2023/10/29 08:41:50;;;;;;;6.57;1.48;;;13.40;99.90;;;;;;5055121;28;36076;-76
2023/10/29 08:44:19;;;;;;;5.65;1.05;;;13.40;99.90;;;;;;5059921;28;38685;-74
2023/10/29 08:46:46;;;;;;;5.57;1.23;;;13.40;99.90;;;;;;5062151;28;39064;-75
2023/10/29 08:49:12;;;;;;;7.40;1.50;;;13.50;99.90;;;;;;5064092;28;39547;-75
2023/10/29 08:51:38;;;;;;;6.30;1.23;;;13.50;99.90;;;;;;5056525;28;36513;-73
2023/10/29 08:54:05;;;;;;;8.38;1.40;;;13.60;99.90;;;;;;5063384;28;39741;-74
2023/10/29 08:56:35;;;;;;;10.20;1.90;;;13.60;99.90;;;;;;5072357;28;38661;-75
2023/10/29 08:59:05;;;;;;;8.40;1.38;;;13.70;99.90;;;;;;5070167;28;38336;-75
2023/10/29 09:01:35;;;;;;;13.63;1.40;;;13.70;99.90;;;;;;5074534;28;48506;-74
2023/10/29 09:04:03;;;;;;;9.57;1.23;;;13.80;99.90;;;;;;5059488;28;37938;-75
2023/10/29 09:06:29;;;;;;;9.05;1.90;;;13.80;99.90;;;;;;5064111;28;48968;-76
2023/10/29 09:08:55;;;;;;;8.95;2.08;;;13.80;99.90;;;;;;5060568;28;37304;-75
2023/10/29 09:11:21;;;;;;;8.20;2.00;;;13.80;99.90;;;;;;5065156;28;36279;-75
2023/10/29 09:13:48;;;;;;;10.13;1.58;;;13.80;99.90;;;;;;5064589;28;37653;-76
2023/10/29 09:16:14;;;;;;;9.10;1.98;;;13.80;99.90;;;;;;5053750;28;39144;-75
2023/10/29 09:18:41;;;;;;;11.27;1.60;;;13.80;99.90;;;;;;5060845;28;37312;-73
2023/10/29 09:21:07;;;;;;;8.52;1.90;;;13.80;99.90;;;;;;5061936;28;36025;-74
2023/10/29 09:23:33;;;;;;;14.68;2.05;;;13.80;99.90;;;;;;5065114;28;37643;-74
2023/10/29 09:25:59;;;;;;;13.88;2.42;;;13.80;99.90;;;;;;5068296;28;36665;-75
2023/10/29 09:28:26;;;;;;;12.68;2.67;;;13.90;99.90;;;;;;5061104;28;39219;-75
2023/10/29 09:30:53;;;;;;;13.40;1.65;;;13.90;99.90;;;;;;5065751;28;37429;-74
2023/10/29 09:33:19;;;;;;;12.77;2.05;;;13.90;99.90;;;;;;5062997;28;39107;-76
2023/10/29 09:35:45;;;;;;;11.20;2.00;;;13.80;99.90;;;;;;5065039;28;37566;-76
2023/10/29 09:38:11;;;;;;;8.25;2.40;;;13.80;99.90;;;;;;5062552;28;38770;-75
2023/10/29 09:40:37;;;;;;;11.18;2.22;;;13.80;99.90;;;;;;5059343;28;36367;-75
2023/10/29 09:43:08;;;;;;;13.00;2.22;;;13.90;99.90;;;;;;5061677;28;38454;-74
2023/10/29 09:45:39;;;;;;;13.13;2.00;;;13.80;99.90;;;;;;5064436;28;40389;-74
2023/10/29 09:48:08;;;;;;;10.45;1.75;;;13.80;99.90;;;;;;5065304;28;37439;-75
2023/10/29 09:50:34;;;;;;;12.50;1.90;;;13.90;99.90;;;;;;5059884;28;39047;-74
2023/10/29 09:53:03;;;;;;;15.43;2.72;;;13.90;99.90;;;;;;5069983;28;39817;-74
2023/10/29 09:55:32;;;;;;;13.48;2.38;;;13.90;99.90;;;;;;5066917;28;47374;-74
2023/10/29 09:57:59;;;;;;;12.25;1.95;;;13.90;99.90;;;;;;5069292;28;38851;-75
2023/10/29 10:00:25;;;;;;;11.73;2.22;;;13.90;99.90;;;;;;5068566;28;37712;-74
2023/10/29 10:02:55;;;;;;;14.45;2.95;;;14.00;99.90;;;;;;5068093;28;39615;-74
2023/10/29 10:05:23;;;;;;;10.93;2.55;;;13.90;99.90;;;;;;5064957;28;37623;-75
2023/10/29 10:07:50;;;;;;;11.60;2.22;;;14.00;99.90;;;;;;5066296;28;37215;-74
2023/10/29 10:10:16;;;;;;;15.20;2.40;;;14.00;99.90;;;;;;5064139;28;37990;-74
2023/10/29 10:12:49;;;;;;;16.52;2.63;;;14.10;99.90;;;;;;5066711;28;38343;-74
2023/10/29 10:15:17;;;;;;;13.98;2.58;;;14.10;99.90;;;;;;5059387;28;37718;-75
2023/10/29 10:17:48;;;;;;;14.93;2.70;;;14.30;99.90;;;;;;5069094;28;37987;-74
2023/10/29 10:20:19;;;;;;;15.65;2.95;;;14.40;99.90;;;;;;5067909;28;37400;-75
2023/10/29 10:22:45;;;;;;;14.73;2.90;;;14.50;99.90;;;;;;5064585;28;38192;-75
2023/10/29 10:25:19;;;;;;;10.75;2.25;;;14.50;99.90;;;;;;5065744;28;38515;-74
2023/10/29 10:27:49;;;;;;;13.50;2.97;;;14.50;99.90;;;;;;5067166;28;38257;-74
2023/10/29 10:30:28;;;;;;;12.18;2.50;;;14.40;99.90;;;;;;5063703;28;36090;-74
2023/10/29 10:33:11;;;;;;;15.38;2.15;;;14.40;99.90;;;;;;5065374;28;38575;-74
2023/10/29 10:35:45;;;;;;;10.20;2.10;;;14.40;99.90;;;;;;5061504;28;47510;-74
2023/10/29 10:38:14;;;;;;;14.02;2.83;;;14.40;99.90;;;;;;5058299;28;37608;-74
2023/10/29 10:40:41;;;;;;;14.05;3.55;;;14.50;99.90;;;;;;5065093;28;37513;-75
2023/10/29 10:43:07;;;;;;;12.02;2.00;;;14.50;99.90;;;;;;5059063;28;39698;-75
2023/10/29 10:45:36;;;;;;;15.35;2.60;;;14.50;99.90;;;;;;5050238;28;37464;-75
2023/10/29 10:48:04;;;;;;;15.68;2.88;;;14.50;99.90;;;;;;5060401;28;38633;-75
2023/10/29 10:50:32;;;;;;;13.05;2.72;;;14.40;99.90;;;;;;5054455;28;36916;-75
2023/10/29 10:52:59;;;;;;;18.30;2.83;;;14.40;99.90;;;;;;5054182;28;38594;-75
2023/10/29 10:55:25;;;;;;;19.52;2.97;;;14.40;99.90;;;;;;5056603;28;38643;-75
2023/10/29 10:57:52;;;;;;;13.48;2.72;;;14.40;99.90;;;;;;5054265;28;37348;-75
2023/10/29 11:00:19;;;;;;;16.23;2.45;;;14.40;99.90;;;;;;5063151;28;36847;-74
2023/10/29 11:02:46;;;;;;;12.30;2.60;;;14.40;99.90;;;;;;5055509;28;39013;-75
2023/10/29 11:05:18;;;;;;;13.00;2.45;;;14.40;99.90;;;;;;5054764;28;37754;-75
2023/10/29 11:07:44;;;;;;;15.00;2.45;;;14.30;99.90;;;;;;5056524;28;37577;-75
2023/10/29 11:10:14;;;;;;;10.57;2.33;;;14.30;99.90;;;;;;5063463;28;36160;-76
2023/10/29 11:12:41;;;;;;;13.52;2.22;;;14.30;99.90;;;;;;5052897;28;38009;-75
2023/10/29 11:15:13;;;;;;;12.02;2.30;;;14.30;99.90;;;;;;5053180;28;37806;-75
2023/10/29 11:17:59;;;;;;;16.73;2.75;;;14.30;99.90;;;;;;5057160;28;38539;-75
2023/10/29 11:20:45;;;;;;;16.02;2.65;;;14.30;99.90;;;;;;5057703;28;36123;-75
2023/10/29 11:23:15;;;;;;;11.60;2.42;;;14.30;99.90;;;;;;5061676;28;39409;-74
2023/10/29 11:25:42;;;;;;;14.25;2.35;;;14.30;99.90;;;;;;5063165;28;39942;-75
2023/10/29 11:28:23;;;;;;;18.05;2.92;;;14.30;99.90;;;;;;5063967;28;37928;-75
2023/10/29 11:31:10;;;;;;;19.08;2.38;;;14.30;99.90;;;;;;5059036;28;37247;-75
2023/10/29 11:33:37;;;;;;;15.45;2.85;;;14.40;99.90;;;;;;5061341;28;46946;-74
2023/10/29 11:36:30;;;;;;;16.90;2.67;;;14.40;99.90;;;;;;5064805;28;38902;-75
2023/10/29 11:39:14;;;;;;;16.70;2.63;;;14.40;99.90;;;;;;5065160;28;38610;-75
2023/10/29 11:41:51;;;;;;;17.52;2.70;;;14.40;99.90;;;;;;5060666;28;48254;-75
2023/10/29 11:44:20;;;;;;;15.57;2.72;;;14.50;99.90;;;;;;5067280;28;37802;-74
2023/10/29 11:46:55;;;;;;;19.02;2.85;;;14.50;99.90;;;;;;5062278;28;39358;-74
2023/10/29 11:49:23;;;;;;;16.42;2.85;;;14.50;99.90;;;;;;5057429;28;39241;-74
2023/10/29 11:51:54;;;;;;;17.60;2.35;;;14.40;99.90;;;;;;5065423;28;37216;-75
2023/10/29 11:54:20;;;;;;;19.60;3.10;;;14.40;99.90;;;;;;5060154;28;40121;-75
2023/10/29 11:56:48;;;;;;;12.68;3.17;;;14.40;99.90;;;;;;5065364;28;38672;-75
2023/10/29 11:59:15;;;;;;;16.52;1.90;;;14.30;99.90;;;;;;5079669;28;37679;-75
2023/10/29 12:01:44;;;;;;;16.75;2.40;;;14.30;99.90;;;;;;5053486;28;36602;-75
2023/10/29 12:04:14;;;;;;;17.25;2.85;;;14.30;99.90;;;;;;5064462;28;37609;-75
2023/10/29 12:06:48;;;;;;;16.80;2.33;;;14.40;99.90;;;;;;5063820;28;38079;-75
2023/10/29 12:09:22;;;;;;;12.60;1.77;;;14.40;99.90;;;;;;5062008;28;37637;-74
2023/10/29 12:11:51;;;;;;;16.70;2.63;;;14.60;99.90;;;;;;5067783;28;37082;-74
2023/10/29 12:14:40;;;;;;;15.30;2.55;;;14.90;99.90;;;;;;5062118;28;38736;-74
2023/10/29 12:17:07;;;;;;;12.30;2.45;;;15.10;99.90;;;;;;5055523;28;39577;-75
2023/10/29 12:19:46;;;;;;;10.30;2.15;;;15.30;99.90;;;;;;5066936;28;38781;-74
2023/10/29 12:22:24;;;;;;;13.88;2.03;;;15.30;99.90;;;;;;5057663;28;37033;-73
2023/10/29 12:25:00;;;;;;;14.85;2.60;;;15.40;99.90;;;;;;5060050;28;37688;-74
2023/10/29 12:27:27;;;;;;;18.20;2.80;;;15.50;99.90;;;;;;5057255;28;37922;-74
2023/10/29 12:29:54;;;;;;;18.65;3.05;;;15.60;99.90;;;;;;5059571;28;38742;-74
2023/10/29 12:32:24;;;;;;;14.05;2.08;;;15.80;99.90;;;;;;5065607;28;36131;-75
2023/10/29 12:34:52;;;;;;;14.85;2.53;;;15.70;99.90;;;;;;5067379;28;37646;-74
2023/10/29 12:37:27;;;;;;;17.73;2.97;;;15.40;99.90;;;;;;5065510;28;39866;-75
2023/10/29 12:39:59;;;;;;;14.13;2.50;;;15.30;99.90;;;;;;5067471;28;38205;-72
2023/10/29 12:42:53;;;;;;;14.73;2.60;;;15.10;99.90;;;;;;5069491;28;37240;-74
2023/10/29 12:45:24;;;;;;;10.77;2.53;;;15.00;99.90;;;;;;5067958;28;38984;-74
2023/10/29 12:48:09;;;;;;;15.43;2.33;;;14.90;99.90;;;;;;5066733;28;39166;-74